Time;durP1;ratioP1;P1;durP2;ratioP2;P2;SDS_P1;SDS_P2;PMS_P1;PMS_P2;Temp;Humidity;BMP_temperature;BMP_pressure;BME280_temperature;BME280_humidity;BME280_pressure;Samples;Min_cycle;Max_cycle;Signal;HPM_P1;HPM_P2
2023/04/11 00:01:33;;;;;;;13.73;6.57;;;11.40;62.80;;;;;;5207800;28;20211;-48
2023/04/11 00:04:04;;;;;;;8.03;6.27;;;11.40;63.20;;;;;;5208432;28;20222;-49
2023/04/11 00:06:34;;;;;;;8.20;6.03;;;11.30;63.70;;;;;;5206811;28;20237;-48
2023/04/11 00:09:05;;;;;;;7.27;6.23;;;11.30;63.80;;;;;;5200200;28;20470;-49
2023/04/11 00:11:35;;;;;;;6.23;5.70;;;11.20;63.80;;;;;;5204081;28;20187;-49
2023/04/11 00:14:07;;;;;;;10.43;6.60;;;11.20;64.40;;;;;;5206461;28;20642;-49
2023/04/11 00:16:38;;;;;;;7.67;6.07;;;11.20;64.30;;;;;;5206665;28;20176;-49
2023/04/11 00:19:09;;;;;;;6.73;6.10;;;11.20;64.50;;;;;;5182768;28;20435;-49
2023/04/11 00:21:39;;;;;;;6.73;6.10;;;11.20;64.60;;;;;;5201141;28;20225;-49
2023/04/11 00:24:10;;;;;;;7.50;5.90;;;11.20;64.60;;;;;;5199020;28;20203;-48
2023/04/11 00:26:40;;;;;;;7.10;6.40;;;11.20;64.40;;;;;;5215590;28;20632;-49
2023/04/11 00:29:11;;;;;;;7.10;6.40;;;11.20;64.30;;;;;;5204201;28;20192;-50
2023/04/11 00:31:42;;;;;;;9.27;6.67;;;11.20;64.90;;;;;;5203779;28;20188;-48
2023/04/11 00:34:12;;;;;;;7.23;6.17;;;11.10;65.10;;;;;;5212256;28;20238;-49
2023/04/11 00:36:43;;;;;;;7.27;6.60;;;11.10;65.20;;;;;;5208603;28;20167;-48
2023/04/11 00:39:17;;;;;;;9.03;6.17;;;11.20;65.10;;;;;;5204931;28;20187;-48
2023/04/11 00:41:48;;;;;;;7.13;5.70;;;11.20;65.20;;;;;;5208336;28;20184;-49
2023/04/11 00:44:18;;;;;;;10.43;6.37;;;11.10;65.40;;;;;;5201020;28;20431;-48
2023/04/11 00:46:50;;;;;;;6.97;6.30;;;11.10;65.60;;;;;;5200932;28;20442;-49
2023/04/11 00:49:20;;;;;;;7.60;6.50;;;11.00;65.50;;;;;;5204409;28;20191;-49
2023/04/11 00:51:52;;;;;;;6.70;5.73;;;11.00;65.70;;;;;;5205458;28;20430;-51
2023/04/11 00:54:28;;;;;;;12.20;5.67;;;11.00;66.00;;;;;;5211686;28;20329;-48
2023/04/11 00:57:03;;;;;;;7.10;6.37;;;11.00;65.70;;;;;;5206234;28;20437;-49
2023/04/11 00:59:34;;;;;;;7.73;6.53;;;10.90;66.20;;;;;;5206050;28;20627;-49
2023/04/11 01:02:05;;;;;;;11.67;5.90;;;11.00;66.30;;;;;;5203959;28;20430;-48
2023/04/11 01:04:36;;;;;;;8.47;6.20;;;11.10;66.00;;;;;;5203721;28;20532;-49
2023/04/11 01:07:07;;;;;;;9.53;6.20;;;11.00;66.10;;;;;;5201883;28;20546;-50
2023/04/11 01:09:38;;;;;;;6.33;5.63;;;10.90;66.40;;;;;;5204196;28;20183;-48
2023/04/11 01:12:10;;;;;;;9.83;7.20;;;10.90;66.60;;;;;;5202306;28;20975;-50
2023/04/11 01:14:41;;;;;;;8.47;6.57;;;10.90;66.70;;;;;;5206051;28;20768;-50
2023/04/11 01:17:13;;;;;;;6.60;6.10;;;10.90;67.00;;;;;;5195571;28;20459;-49
2023/04/11 01:19:43;;;;;;;8.60;6.10;;;10.80;67.40;;;;;;5197057;28;20187;-49
2023/04/11 01:22:16;;;;;;;9.53;5.90;;;10.70;67.60;;;;;;5200931;28;20979;-49
2023/04/11 01:24:47;;;;;;;7.20;5.80;;;10.80;68.00;;;;;;5198574;28;20648;-49
2023/04/11 01:27:18;;;;;;;6.70;6.00;;;10.80;67.60;;;;;;5204530;28;20572;-50
2023/04/11 01:29:49;;;;;;;6.30;5.70;;;10.80;68.00;;;;;;5197706;28;20191;-49
2023/04/11 01:32:20;;;;;;;7.27;6.57;;;10.80;68.00;;;;;;5203334;28;20309;-50
2023/04/11 01:34:54;;;;;;;7.57;6.40;;;10.70;68.30;;;;;;5207724;28;20458;-49
2023/04/11 01:37:25;;;;;;;7.80;6.07;;;10.80;68.40;;;;;;5203761;28;20214;-48
2023/04/11 01:39:56;;;;;;;6.53;5.93;;;10.80;68.50;;;;;;5206871;28;20970;-49
2023/04/11 01:42:28;;;;;;;6.23;5.73;;;10.70;68.80;;;;;;5205919;28;20318;-48
2023/04/11 01:45:00;;;;;;;8.00;6.70;;;10.70;69.30;;;;;;5203785;28;20180;-48
2023/04/11 01:47:31;;;;;;;8.10;5.47;;;10.80;69.10;;;;;;5204670;28;20438;-48
2023/04/11 01:50:01;;;;;;;6.47;5.60;;;10.70;69.90;;;;;;5204998;28;20499;-49
2023/04/11 01:52:32;;;;;;;7.17;5.80;;;10.80;69.30;;;;;;5201905;28;20200;-49
2023/04/11 01:55:03;;;;;;;6.97;6.30;;;10.80;69.20;;;;;;5195296;28;20203;-49
2023/04/11 01:57:33;;;;;;;7.33;5.83;;;10.80;69.60;;;;;;5212383;28;20256;-48
2023/04/11 02:00:05;;;;;;;6.83;6.13;;;10.80;69.50;;;;;;5197921;28;20568;-49
2023/04/11 02:02:36;;;;;;;6.67;6.03;;;10.70;69.70;;;;;;5195913;28;20227;-49
2023/04/11 02:05:07;;;;;;;7.00;6.33;;;10.90;69.70;;;;;;5202943;28;20884;-49
2023/04/11 02:07:38;;;;;;;10.23;6.70;;;10.70;70.00;;;;;;5200315;28;20461;-49
2023/04/11 02:10:09;;;;;;;7.90;6.40;;;10.80;69.80;;;;;;5201145;28;20175;-49
2023/04/11 02:12:40;;;;;;;7.10;6.43;;;10.80;70.00;;;;;;5195302;28;20211;-48
2023/04/11 02:15:10;;;;;;;6.50;5.87;;;10.80;70.10;;;;;;5207673;28;20798;-49
2023/04/11 02:17:44;;;;;;;6.57;5.87;;;10.80;70.10;;;;;;5206815;28;20262;-48
2023/04/11 02:20:15;;;;;;;6.80;5.67;;;10.70;70.60;;;;;;5207167;28;20562;-48
2023/04/11 02:22:46;;;;;;;8.70;6.50;;;10.60;70.60;;;;;;5209102;28;20454;-50
2023/04/11 02:25:17;;;;;;;9.60;6.57;;;10.70;71.10;;;;;;5208272;28;20446;-49
2023/04/11 02:27:47;;;;;;;7.57;6.77;;;10.80;70.90;;;;;;5206596;28;20859;-49
2023/04/11 02:30:18;;;;;;;7.77;6.60;;;10.70;71.20;;;;;;5216363;28;20179;-48
2023/04/11 02:32:49;;;;;;;8.00;6.83;;;10.70;72.00;;;;;;5207589;28;20211;-49
2023/04/11 02:35:19;;;;;;;8.03;6.70;;;10.50;72.60;;;;;;5218933;28;20233;-50
2023/04/11 02:37:50;;;;;;;9.03;5.83;;;10.50;72.50;;;;;;5210596;28;20184;-48
2023/04/11 02:40:21;;;;;;;10.33;7.40;;;10.60;73.20;;;;;;5208306;28;20179;-49
2023/04/11 02:42:51;;;;;;;6.10;5.40;;;10.50;73.90;;;;;;5208243;28;20199;-49
2023/04/11 02:45:22;;;;;;;8.60;6.33;;;10.50;74.10;;;;;;5201956;28;20227;-51
2023/04/11 02:47:53;;;;;;;7.10;6.40;;;10.50;74.10;;;;;;5206943;28;20636;-47
2023/04/11 02:50:25;;;;;;;7.13;6.43;;;10.60;74.10;;;;;;5217534;28;20663;-50
2023/04/11 02:52:56;;;;;;;8.03;6.43;;;10.50;74.40;;;;;;5206633;28;20289;-49
2023/04/11 02:55:27;;;;;;;7.90;7.10;;;10.40;75.40;;;;;;5179736;28;20931;-49
2023/04/11 02:57:57;;;;;;;8.60;6.50;;;10.40;76.10;;;;;;5194601;28;20187;-49
2023/04/11 03:00:28;;;;;;;8.83;6.70;;;10.40;76.40;;;;;;5203793;28;20188;-49
2023/04/11 03:02:58;;;;;;;8.77;6.07;;;10.50;75.80;;;;;;5204124;28;20298;-48
2023/04/11 03:05:29;;;;;;;5.80;5.30;;;10.60;75.40;;;;;;5204479;28;20282;-49
2023/04/11 03:08:00;;;;;;;7.47;6.67;;;10.40;75.40;;;;;;5195787;28;20198;-49
2023/04/11 03:10:30;;;;;;;9.93;7.00;;;10.50;75.60;;;;;;5199679;28;20191;-49
2023/04/11 03:13:01;;;;;;;9.07;6.70;;;10.50;75.40;;;;;;5198650;28;20301;-49
2023/04/11 03:15:31;;;;;;;6.13;5.57;;;10.60;75.50;;;;;;5207624;28;20207;-49
2023/04/11 03:18:02;;;;;;;9.60;6.87;;;10.60;75.70;;;;;;5201598;28;20645;-48
2023/04/11 03:20:33;;;;;;;7.43;6.63;;;10.50;76.30;;;;;;5205745;28;20191;-50
2023/04/11 03:23:03;;;;;;;7.57;6.67;;;10.50;76.60;;;;;;5203476;28;20215;-47
2023/04/11 03:25:36;;;;;;;7.67;6.17;;;10.50;76.80;;;;;;5203561;28;20290;-47
2023/04/11 03:28:07;;;;;;;7.20;5.90;;;10.50;77.20;;;;;;5199042;28;20211;-50
2023/04/11 03:30:39;;;;;;;7.40;5.97;;;10.50;77.20;;;;;;5205781;28;20464;-48
2023/04/11 03:33:10;;;;;;;8.43;7.00;;;10.50;77.20;;;;;;5199094;28;20207;-48
2023/04/11 03:35:41;;;;;;;7.63;6.40;;;10.50;77.50;;;;;;5201887;28;20570;-48
2023/04/11 03:38:12;;;;;;;9.10;6.43;;;10.40;78.30;;;;;;5200792;28;20184;-47
2023/04/11 03:40:42;;;;;;;6.90;5.87;;;10.60;77.50;;;;;;5202223;28;20186;-49
2023/04/11 03:43:13;;;;;;;7.23;6.17;;;10.70;77.00;;;;;;5212061;28;20316;-48
2023/04/11 03:45:44;;;;;;;7.23;5.70;;;10.60;76.70;;;;;;5203139;28;20687;-49
2023/04/11 03:48:15;;;;;;;7.47;6.67;;;10.60;77.30;;;;;;5201096;28;20443;-50
2023/04/11 03:50:46;;;;;;;5.83;5.33;;;10.60;77.90;;;;;;5206552;28;20183;-47
2023/04/11 03:53:16;;;;;;;8.47;6.20;;;10.50;77.90;;;;;;5204292;28;20231;-49
2023/04/11 03:55:47;;;;;;;8.30;6.50;;;10.50;78.40;;;;;;5207124;28;20206;-49
2023/04/11 03:58:18;;;;;;;6.63;6.00;;;10.50;78.90;;;;;;5209108;28;20183;-48
2023/04/11 04:00:49;;;;;;;7.90;6.97;;;10.60;80.50;;;;;;5201201;28;20792;-48
2023/04/11 04:03:20;;;;;;;8.37;6.70;;;10.50;82.90;;;;;;5225405;28;20258;-48
2023/04/11 04:05:50;;;;;;;7.90;6.37;;;10.40;89.60;;;;;;5206217;28;20198;-48
2023/04/11 04:08:21;;;;;;;7.93;6.63;;;10.20;93.30;;;;;;5206980;28;20431;-48
2023/04/11 04:10:52;;;;;;;7.90;6.50;;;10.10;95.40;;;;;;5200029;28;20615;-48
2023/04/11 04:13:22;;;;;;;8.07;6.07;;;10.10;96.50;;;;;;5205071;28;20195;-49
2023/04/11 04:15:53;;;;;;;8.17;7.10;;;10.30;95.70;;;;;;5170073;28;20246;-50
2023/04/11 04:18:23;;;;;;;6.50;5.90;;;10.10;96.60;;;;;;5199643;28;20182;-50
2023/04/11 04:20:54;;;;;;;8.17;6.50;;;10.10;97.80;;;;;;5205910;28;20207;-48
2023/04/11 04:23:25;;;;;;;8.03;5.87;;;10.30;96.90;;;;;;5204198;28;20566;-48
2023/04/11 04:25:56;;;;;;;10.90;7.10;;;10.30;97.10;;;;;;5203212;28;20756;-49
2023/04/11 04:28:28;;;;;;;9.27;6.40;;;10.30;96.10;;;;;;5204395;28;20971;-50
2023/04/11 04:31:00;;;;;;;15.20;11.50;;;10.20;98.10;;;;;;5202688;28;20432;-50
2023/04/11 04:33:31;;;;;;;11.57;9.00;;;10.10;99.40;;;;;;5202328;28;20502;-49
2023/04/11 04:36:03;;;;;;;10.83;6.80;;;10.10;99.90;;;;;;5206249;28;20430;-48
2023/04/11 04:38:37;;;;;;;7.83;6.90;;;9.90;99.90;;;;;;5206152;28;20179;-49
2023/04/11 04:41:13;;;;;;;11.27;7.37;;;9.80;99.90;;;;;;5204382;28;20441;-49
2023/04/11 04:43:44;;;;;;;11.10;6.93;;;9.70;99.90;;;;;;5205949;28;20679;-47
2023/04/11 04:46:15;;;;;;;12.70;7.37;;;9.60;99.90;;;;;;5203271;28;20871;-49
2023/04/11 04:48:45;;;;;;;7.03;6.30;;;9.60;99.90;;;;;;5200322;28;20186;-49
2023/04/11 04:51:16;;;;;;;8.47;7.10;;;9.50;99.90;;;;;;5202226;28;20176;-48
2023/04/11 04:53:48;;;;;;;13.27;7.07;;;9.40;99.90;;;;;;5197239;28;20239;-49
2023/04/11 04:56:19;;;;;;;10.40;8.00;;;9.00;99.90;;;;;;5200583;28;20576;-49
2023/04/11 04:58:50;;;;;;;8.67;7.23;;;8.90;99.90;;;;;;5201376;28;20427;-49
2023/04/11 05:01:21;;;;;;;9.63;7.47;;;8.80;99.90;;;;;;5198179;28;20187;-48
2023/04/11 05:03:57;;;;;;;12.23;9.27;;;8.90;99.90;;;;;;5226812;23;20501;-48
2023/04/11 05:06:30;;;;;;;7.93;7.23;;;8.80;99.90;;;;;;5185022;28;20180;-49
2023/04/11 05:09:04;;;;;;;9.20;8.20;;;8.70;99.90;;;;;;5198696;28;20793;-51
2023/04/11 05:11:38;;;;;;;8.67;7.53;;;8.60;99.90;;;;;;5203914;28;20444;-48
2023/04/11 05:14:09;;;;;;;8.80;7.83;;;8.50;99.90;;;;;;5195857;28;20474;-50
2023/04/11 05:16:41;;;;;;;12.70;9.50;;;8.70;99.90;;;;;;5206573;28;20431;-50
2023/04/11 05:19:12;;;;;;;9.07;7.60;;;8.60;99.90;;;;;;5201715;28;20274;-49
2023/04/11 05:21:42;;;;;;;8.73;7.80;;;8.70;99.90;;;;;;5202321;28;20508;-49
2023/04/11 05:24:13;;;;;;;9.80;8.27;;;8.60;99.90;;;;;;5196544;28;20747;-49
2023/04/11 05:26:44;;;;;;;14.77;9.17;;;8.50;99.90;;;;;;5197926;28;20207;-49
2023/04/11 05:29:15;;;;;;;8.17;7.13;;;8.60;99.90;;;;;;5201594;28;20184;-49
2023/04/11 05:31:46;;;;;;;12.13;8.50;;;8.70;99.90;;;;;;5184333;28;20505;-50
2023/04/11 05:34:16;;;;;;;11.73;8.20;;;8.50;99.90;;;;;;5201941;28;20680;-51
2023/04/11 05:36:47;;;;;;;10.20;8.40;;;8.40;99.90;;;;;;5208466;28;20199;-49
2023/04/11 05:39:18;;;;;;;12.27;8.40;;;8.50;99.90;;;;;;5199131;28;20222;-49
2023/04/11 05:41:49;;;;;;;12.03;8.30;;;8.60;99.90;;;;;;5201162;28;20179;-50
2023/04/11 05:44:22;;;;;;;16.13;9.10;;;8.60;99.90;;;;;;5205266;28;20196;-50
2023/04/11 05:46:53;;;;;;;16.13;10.00;;;8.60;99.90;;;;;;5205517;28;20535;-49
2023/04/11 05:49:24;;;;;;;9.50;7.90;;;8.60;99.90;;;;;;5203360;28;20535;-50
2023/04/11 05:51:55;;;;;;;12.50;9.00;;;8.60;99.90;;;;;;5207829;28;20180;-49
2023/04/11 05:54:36;;;;;;;11.67;8.30;;;8.40;99.90;;;;;;5206685;28;20238;-49
2023/04/11 05:57:07;;;;;;;11.47;9.23;;;8.30;99.90;;;;;;5206727;28;20470;-49
2023/04/11 05:59:37;;;;;;;21.83;9.93;;;8.30;99.90;;;;;;5208094;28;20456;-48
2023/04/11 06:02:08;;;;;;;11.70;9.40;;;8.30;99.90;;;;;;5206702;28;20169;-49
2023/04/11 06:04:39;;;;;;;13.77;10.93;;;8.40;99.90;;;;;;5195508;28;20319;-49
2023/04/11 06:07:11;;;;;;;16.67;10.47;;;8.40;99.90;;;;;;5206039;28;20210;-51
2023/04/11 06:09:43;;;;;;;13.70;10.57;;;8.50;99.90;;;;;;5187871;28;20435;-51
2023/04/11 06:12:13;;;;;;;11.87;9.97;;;8.50;99.90;;;;;;5204810;28;20470;-49
2023/04/11 06:14:44;;;;;;;15.90;11.30;;;8.50;99.90;;;;;;5202964;28;20512;-49
2023/04/11 06:17:15;;;;;;;11.60;9.00;;;8.60;99.90;;;;;;5190945;28;20653;-48
2023/04/11 06:19:46;;;;;;;14.47;10.20;;;8.60;99.90;;;;;;5207296;28;20438;-49
2023/04/11 06:22:17;;;;;;;14.97;10.60;;;8.60;99.90;;;;;;5208511;28;20643;-50
2023/04/11 06:24:51;;;;;;;15.40;10.70;;;8.80;99.90;;;;;;5202360;28;20187;-49
2023/04/11 06:27:22;;;;;;;15.40;10.77;;;8.90;99.90;;;;;;5205934;28;20179;-49
2023/04/11 06:29:53;;;;;;;20.27;12.10;;;9.10;99.90;;;;;;5203722;28;20450;-48
2023/04/11 06:32:24;;;;;;;15.30;10.47;;;9.20;99.90;;;;;;5203332;28;20184;-49
2023/04/11 06:34:55;;;;;;;15.30;11.10;;;9.20;99.90;;;;;;5205014;28;20741;-49
2023/04/11 06:37:26;;;;;;;13.10;9.37;;;9.20;99.90;;;;;;5201274;28;20419;-50
2023/04/11 06:39:59;;;;;;;18.70;10.50;;;9.30;99.90;;;;;;5196841;28;20533;-49
2023/04/11 06:42:30;;;;;;;12.93;9.80;;;9.10;99.90;;;;;;5206577;28;20203;-51
2023/04/11 06:45:00;;;;;;;18.57;10.83;;;9.00;99.90;;;;;;5201439;28;20536;-49
2023/04/11 06:47:31;;;;;;;12.27;10.57;;;8.90;99.90;;;;;;5207603;28;20293;-49
2023/04/11 06:50:02;;;;;;;16.60;11.30;;;9.00;99.90;;;;;;5201546;28;20184;-49
2023/04/11 06:52:33;;;;;;;15.97;10.87;;;8.90;99.90;;;;;;5205992;28;20214;-50
2023/04/11 06:55:06;;;;;;;14.97;11.20;;;8.90;99.90;;;;;;5202723;28;20993;-49
2023/04/11 06:57:36;;;;;;;10.70;9.37;;;8.90;99.90;;;;;;5205966;28;20188;-49
2023/04/11 07:00:11;;;;;;;12.63;10.20;;;8.90;99.90;;;;;;5204069;28;20462;-50
2023/04/11 07:02:43;;;;;;;19.40;11.27;;;8.90;99.90;;;;;;5203915;28;20226;-49
2023/04/11 07:05:15;;;;;;;13.17;10.80;;;9.00;99.90;;;;;;5203085;28;20807;-50
2023/04/11 07:07:45;;;;;;;13.53;10.50;;;9.00;99.90;;;;;;5192328;28;20430;-50
2023/04/11 07:10:19;;;;;;;14.83;10.43;;;9.10;99.90;;;;;;5198865;28;20427;-50
2023/04/11 07:12:52;;;;;;;16.33;10.27;;;9.10;99.90;;;;;;5208270;28;20687;-51
2023/04/11 07:15:23;;;;;;;15.57;10.90;;;9.20;99.90;;;;;;5206107;28;20481;-51
2023/04/11 07:17:53;;;;;;;19.80;11.30;;;9.30;99.90;;;;;;5197323;28;20431;-52
2023/04/11 07:20:24;;;;;;;16.43;11.77;;;9.30;99.90;;;;;;5201886;28;20242;-51
2023/04/11 07:22:55;;;;;;;15.97;10.47;;;9.40;99.90;;;;;;5199527;28;20207;-51
2023/04/11 07:25:29;;;;;;;19.27;11.00;;;9.50;99.90;;;;;;5200881;28;20465;-50
2023/04/11 07:27:59;;;;;;;15.40;11.20;;;9.60;99.90;;;;;;5206258;28;20210;-51
2023/04/11 07:30:30;;;;;;;20.03;12.90;;;9.50;99.90;;;;;;5205928;28;20881;-50
2023/04/11 07:33:02;;;;;;;15.77;10.03;;;9.60;99.90;;;;;;5196625;28;20614;-50
2023/04/11 07:35:33;;;;;;;12.83;9.50;;;9.60;99.90;;;;;;5199985;28;20293;-50
2023/04/11 07:38:04;;;;;;;12.60;10.50;;;9.60;99.90;;;;;;5202759;28;20460;-50
2023/04/11 07:40:34;;;;;;;13.03;9.00;;;9.50;99.90;;;;;;5195746;28;20427;-49
2023/04/11 07:43:05;;;;;;;12.30;9.77;;;9.50;99.90;;;;;;5195896;28;20211;-50
2023/04/11 07:45:38;;;;;;;14.93;10.03;;;9.50;99.90;;;;;;5206421;28;20249;-50
2023/04/11 07:48:09;;;;;;;12.27;9.30;;;9.40;99.90;;;;;;5198436;28;20234;-50
2023/04/11 07:50:40;;;;;;;16.00;10.50;;;9.50;99.90;;;;;;5205773;28;20871;-49
2023/04/11 07:53:11;;;;;;;14.37;10.73;;;9.60;99.90;;;;;;5204410;28;20470;-49
2023/04/11 07:55:42;;;;;;;12.27;9.40;;;9.70;99.90;;;;;;5199784;28;20467;-50
2023/04/11 07:58:13;;;;;;;20.50;10.57;;;9.90;99.90;;;;;;5201563;28;20422;-50
2023/04/11 08:00:44;;;;;;;18.67;9.70;;;9.90;99.90;;;;;;5207242;28;20434;-51
2023/04/11 08:03:16;;;;;;;10.43;8.77;;;9.80;99.90;;;;;;5200817;28;20284;-49
2023/04/11 08:05:51;;;;;;;16.90;9.77;;;9.90;99.90;;;;;;5198643;28;20447;-50
2023/04/11 08:08:22;;;;;;;15.03;10.67;;;9.80;99.90;;;;;;5202588;28;20508;-51
2023/04/11 08:10:53;;;;;;;10.37;8.20;;;9.70;99.90;;;;;;5200087;28;20430;-51
2023/04/11 08:13:27;;;;;;;17.53;11.23;;;9.80;99.90;;;;;;5207265;28;20997;-50
2023/04/11 08:15:57;;;;;;;11.87;8.60;;;9.70;99.90;;;;;;5201841;28;20267;-49
2023/04/11 08:18:28;;;;;;;12.77;9.07;;;9.70;99.90;;;;;;5206119;28;20557;-49
2023/04/11 08:20:59;;;;;;;13.30;9.37;;;9.50;99.90;;;;;;5202597;28;20652;-49
2023/04/11 08:23:30;;;;;;;13.30;9.13;;;9.30;99.90;;;;;;5201526;28;20227;-50
2023/04/11 08:26:01;;;;;;;10.60;7.60;;;9.10;99.90;;;;;;5205174;28;20179;-51
2023/04/11 08:28:35;;;;;;;10.77;6.40;;;9.00;99.90;;;;;;5207087;28;20188;-50
2023/04/11 08:31:05;;;;;;;8.13;5.63;;;8.80;99.90;;;;;;5202064;28;20519;-51
2023/04/11 08:33:37;;;;;;;6.40;5.80;;;8.70;99.90;;;;;;5202228;28;20465;-50
2023/04/11 08:36:08;;;;;;;6.87;5.40;;;8.70;99.90;;;;;;5206885;28;20219;-50
2023/04/11 08:38:39;;;;;;;15.60;5.73;;;8.70;99.90;;;;;;5205222;28;20439;-49
2023/04/11 08:41:10;;;;;;;7.03;5.20;;;8.70;99.90;;;;;;5204448;28;20521;-50
2023/04/11 08:43:45;;;;;;;7.43;5.00;;;8.70;99.90;;;;;;5207197;28;20199;-49
2023/04/11 08:46:17;;;;;;;9.50;6.30;;;8.70;99.90;;;;;;5205747;28;20444;-50
2023/04/11 08:48:48;;;;;;;7.73;4.00;;;8.80;99.90;;;;;;5203398;28;20511;-50
2023/04/11 08:51:23;;;;;;;4.97;3.93;;;8.80;99.90;;;;;;5216778;28;20516;-50
2023/04/11 08:54:00;;;;;;;5.43;3.20;;;8.80;99.90;;;;;;5205697;28;20465;-49
2023/04/11 08:56:32;;;;;;;6.43;3.63;;;8.70;99.90;;;;;;5203248;28;20443;-49
2023/04/11 08:59:03;;;;;;;6.43;3.40;;;8.70;99.90;;;;;;5206053;28;20442;-50
2023/04/11 09:01:36;;;;;;;5.00;3.90;;;8.70;99.90;;;;;;5187598;28;20535;-51
2023/04/11 09:04:07;;;;;;;4.47;3.93;;;8.70;99.90;;;;;;5193403;28;20248;-49
2023/04/11 09:06:38;;;;;;;4.97;3.97;;;8.70;99.90;;;;;;5204568;28;20537;-49
2023/04/11 09:09:28;;;;;;;8.63;4.57;;;8.90;99.90;;;;;;5196104;28;20474;-49
2023/04/11 09:12:00;;;;;;;5.87;4.07;;;9.00;99.90;;;;;;5203572;28;20810;-49
2023/04/11 09:14:31;;;;;;;5.70;3.00;;;9.20;99.90;;;;;;5205250;28;20458;-50
2023/04/11 09:17:04;;;;;;;7.63;4.00;;;9.40;99.90;;;;;;5205583;28;20457;-49
2023/04/11 09:19:35;;;;;;;5.40;3.07;;;9.60;99.90;;;;;;5209211;28;20456;-50
2023/04/11 09:22:06;;;;;;;12.47;3.50;;;9.90;99.90;;;;;;5202671;28;20474;-52
2023/04/11 09:24:37;;;;;;;4.70;2.90;;;9.90;99.90;;;;;;5210643;28;20298;-52
2023/04/11 09:27:09;;;;;;;5.90;2.97;;;10.20;99.90;;;;;;5210093;28;20529;-50
2023/04/11 09:29:44;;;;;;;4.67;2.90;;;10.50;99.90;;;;;;5205710;28;20525;-51
2023/04/11 09:32:34;;;;;;;3.77;2.77;;;11.00;99.90;;;;;;5204252;28;20409;-52
2023/04/11 09:35:19;;;;;;;4.30;1.70;;;11.50;99.90;;;;;;5204728;28;20463;-52
2023/04/11 09:37:53;;;;;;;5.10;2.13;;;11.90;99.90;;;;;;5194051;28;20418;-51
2023/04/11 09:40:26;;;;;;;6.80;2.70;;;12.10;99.90;;;;;;5206694;28;20434;-49
2023/04/11 09:43:00;;;;;;;7.10;3.00;;;12.60;99.90;;;;;;5187018;28;20453;-50
2023/04/11 09:45:31;;;;;;;7.97;3.47;;;13.10;99.90;;;;;;5208621;28;20437;-50
2023/04/11 09:48:02;;;;;;;10.27;4.87;;;13.50;99.90;;;;;;5205386;28;20457;-50
2023/04/11 09:50:37;;;;;;;10.70;3.07;;;13.90;99.90;;;;;;5203624;28;20177;-50
2023/04/11 09:53:09;;;;;;;6.30;2.37;;;14.10;99.90;;;;;;5209676;28;20452;-51
2023/04/11 09:55:40;;;;;;;10.43;2.37;;;14.10;99.90;;;;;;5210668;28;20450;-50
2023/04/11 09:58:12;;;;;;;6.90;2.70;;;14.00;99.90;;;;;;5205057;28;20530;-51
2023/04/11 10:00:43;;;;;;;7.90;2.07;;;14.00;99.90;;;;;;5202846;28;20188;-50
2023/04/11 10:03:15;;;;;;;3.63;2.23;;;14.00;99.90;;;;;;5201006;28;20882;-50
2023/04/11 10:05:46;;;;;;;9.83;2.53;;;13.90;99.90;;;;;;5203780;28;20434;-51
2023/04/11 10:08:21;;;;;;;2.57;2.23;;;13.90;99.90;;;;;;5207849;28;20418;-53
2023/04/11 10:10:53;;;;;;;6.03;2.90;;;13.90;99.90;;;;;;5195011;28;20237;-51
2023/04/11 10:13:43;;;;;;;14.23;5.13;;;13.70;99.90;;;;;;5199007;28;20480;-51
2023/04/11 10:16:17;;;;;;;5.00;3.10;;;13.80;99.90;;;;;;5205457;28;20449;-50
2023/04/11 10:18:54;;;;;;;8.50;2.70;;;14.00;99.90;;;;;;5184967;28;20442;-50
2023/04/11 10:21:33;;;;;;;5.00;1.60;;;14.20;99.90;;;;;;5203813;28;20798;-51
2023/04/11 10:24:19;;;;;;;12.17;1.43;;;14.30;99.90;;;;;;5207436;28;20450;-50
2023/04/11 10:26:50;;;;;;;3.33;1.30;;;14.40;99.90;;;;;;5198735;28;20431;-52
2023/04/11 10:32:10;;;;;;;9.47;5.80;;;15.00;96.70;;;;;;5201391;28;20179;-51
2023/04/11 10:34:53;;;;;;;21.60;11.80;;;15.10;90.40;;;;;;5196416;28;20493;-51
2023/04/11 10:37:32;;;;;;;2.70;2.50;;;14.90;88.80;;;;;;5207225;28;20456;-51
2023/04/11 10:40:08;;;;;;;5.93;2.47;;;14.70;89.20;;;;;;5204461;28;20471;-49
2023/04/11 10:42:40;;;;;;;4.47;2.77;;;14.20;90.10;;;;;;5190989;28;20466;-50
2023/04/11 10:45:28;;;;;;;12.53;7.07;;;14.40;91.50;;;;;;5204101;28;20976;-52
2023/04/11 10:48:02;;;;;;;5.73;2.17;;;14.80;89.20;;;;;;5204987;28;20442;-51
2023/04/11 10:50:39;;;;;;;16.60;6.63;;;14.60;87.60;;;;;;5206305;28;21074;-51
2023/04/11 10:53:35;;;;;;;3.17;2.10;;;14.40;89.50;;;;;;5204486;28;20476;-50
2023/04/11 10:56:06;;;;;;;2.60;1.07;;;14.40;86.00;;;;;;5203684;28;20428;-51
2023/04/11 10:58:38;;;;;;;2.03;1.77;;;14.40;81.90;;;;;;5197851;28;20439;-50
2023/04/11 11:01:14;;;;;;;14.83;6.90;;;14.30;83.50;;;;;;5204131;28;20702;-51
2023/04/11 11:03:52;;;;;;;31.60;14.40;;;14.20;81.60;;;;;;5218513;23;21039;-50
2023/04/11 11:06:25;;;;;;;7.40;2.10;;;14.40;83.90;;;;;;5218545;28;20433;-49
2023/04/11 11:08:56;;;;;;;6.10;2.47;;;14.40;81.70;;;;;;5224709;28;20429;-51
2023/04/11 11:11:27;;;;;;;3.07;2.47;;;14.40;80.70;;;;;;5225864;28;20453;-50
2023/04/11 11:13:59;;;;;;;27.53;16.40;;;14.30;83.00;;;;;;5215721;28;20496;-51
2023/04/11 11:16:30;;;;;;;4.87;3.97;;;14.00;85.80;;;;;;5221814;28;20179;-50
2023/04/11 11:19:04;;;;;;;4.43;2.10;;;13.70;86.30;;;;;;5222838;28;20954;-50
2023/04/11 11:21:35;;;;;;;2.53;2.20;;;13.60;90.40;;;;;;5222577;28;20631;-52
2023/04/11 11:24:05;;;;;;;12.97;7.47;;;13.20;91.90;;;;;;5222699;28;20453;-49
2023/04/11 11:26:38;;;;;;;11.17;2.40;;;13.40;93.60;;;;;;5216205;28;20302;-50
2023/04/11 11:29:10;;;;;;;2.43;0.93;;;13.50;93.60;;;;;;5225122;28;20179;-50
2023/04/11 11:31:45;;;;;;;1.53;0.83;;;13.80;92.50;;;;;;5218102;28;20442;-49
2023/04/11 11:34:29;;;;;;;2.00;1.17;;;14.10;92.40;;;;;;5226423;28;20461;-52
2023/04/11 11:37:05;;;;;;;6.50;3.80;;;14.30;91.60;;;;;;5221365;28;20441;-50
2023/04/11 11:39:35;;;;;;;6.23;2.63;;;14.50;90.00;;;;;;5221859;28;20433;-50
2023/04/11 11:42:06;;;;;;;1.60;1.00;;;14.80;84.80;;;;;;5220369;28;20518;-50
2023/04/11 11:44:37;;;;;;;2.73;1.30;;;15.20;77.90;;;;;;5220757;28;20195;-50
2023/04/11 11:47:13;;;;;;;1.40;1.40;;;15.30;75.30;;;;;;5217234;28;20694;-49
2023/04/11 11:49:54;;;;;;;1.57;1.47;;;15.20;75.80;;;;;;5222076;28;20586;-49
2023/04/11 11:52:36;;;;;;;3.00;1.60;;;15.20;74.20;;;;;;5221867;28;20436;-50
2023/04/11 11:55:17;;;;;;;9.80;3.93;;;15.50;74.40;;;;;;5212460;28;20465;-50
2023/04/11 11:57:49;;;;;;;1.80;1.27;;;15.50;72.00;;;;;;5224441;28;20945;-50
2023/04/11 12:00:24;;;;;;;1.70;1.20;;;15.00;69.00;;;;;;5220094;28;20423;-49
2023/04/11 12:02:58;;;;;;;2.50;1.30;;;14.90;71.10;;;;;;5222138;28;20524;-49
2023/04/11 12:05:31;;;;;;;2.67;1.33;;;14.80;73.90;;;;;;5220386;28;20455;-49
2023/04/11 12:08:04;;;;;;;5.13;3.50;;;14.70;76.70;;;;;;5218175;28;20448;-50
2023/04/11 12:10:40;;;;;;;5.20;1.07;;;14.70;75.90;;;;;;5214024;28;20449;-49
2023/04/11 12:13:16;;;;;;;2.13;0.80;;;13.90;73.50;;;;;;5221811;28;20454;-50
2023/04/11 12:15:52;;;;;;;7.20;1.60;;;13.60;74.20;;;;;;5230348;28;20464;-50
2023/04/11 12:18:24;;;;;;;4.80;0.90;;;13.70;76.40;;;;;;5230087;28;20437;-50
2023/04/11 12:20:54;;;;;;;1.73;1.30;;;14.00;77.30;;;;;;5223567;28;20426;-51
2023/04/11 12:23:25;;;;;;;3.17;1.07;;;13.80;84.60;;;;;;5226238;28;20498;-51
2023/04/11 12:25:56;;;;;;;1.47;1.37;;;13.30;93.50;;;;;;5220281;28;20195;-50
2023/04/11 12:28:26;;;;;;;1.10;1.10;;;13.10;98.60;;;;;;5215286;28;20189;-49
2023/04/11 12:30:57;;;;;;;3.03;1.57;;;12.60;99.90;;;;;;5223193;28;20233;-49
2023/04/11 12:33:28;;;;;;;3.53;1.10;;;12.30;99.90;;;;;;5219367;28;20287;-50
2023/04/11 12:35:58;;;;;;;2.80;1.10;;;12.30;97.10;;;;;;5217511;28;20199;-51
2023/04/11 12:38:29;;;;;;;4.50;2.10;;;12.50;98.20;;;;;;5225344;28;20523;-52
2023/04/11 12:41:00;;;;;;;2.97;1.63;;;12.90;97.70;;;;;;5225480;28;20186;-49
2023/04/11 12:43:30;;;;;;;3.57;1.10;;;13.10;97.50;;;;;;5217468;28;20603;-48
2023/04/11 12:46:01;;;;;;;2.33;1.23;;;13.00;99.40;;;;;;5222496;28;20322;-50
2023/04/11 12:48:32;;;;;;;1.27;1.27;;;12.70;99.90;;;;;;5223002;28;20186;-49
2023/04/11 12:51:02;;;;;;;23.40;10.90;;;12.20;99.90;;;;;;5223052;28;20183;-51
2023/04/11 12:53:33;;;;;;;2.83;1.50;;;12.10;99.90;;;;;;5227311;28;20214;-51
2023/04/11 12:56:04;;;;;;;3.20;1.53;;;12.20;99.90;;;;;;5223275;28;20492;-49
2023/04/11 12:58:35;;;;;;;4.93;1.53;;;12.40;99.90;;;;;;5225772;28;20182;-49
2023/04/11 13:01:06;;;;;;;10.00;4.27;;;12.80;99.90;;;;;;5226043;28;20429;-51
2023/04/11 13:03:37;;;;;;;4.43;1.63;;;13.10;99.90;;;;;;5221721;28;20524;-50
2023/04/11 13:06:07;;;;;;;1.90;1.80;;;13.30;99.90;;;;;;5218843;28;20442;-50
2023/04/11 13:08:38;;;;;;;1.70;1.07;;;13.40;99.90;;;;;;5222550;28;20192;-50
2023/04/11 13:11:09;;;;;;;8.77;3.77;;;13.10;98.80;;;;;;5218823;28;20697;-52
2023/04/11 13:13:39;;;;;;;7.70;4.23;;;13.00;99.30;;;;;;5216123;28;20211;-49